x

9442396 - La Push, Wa (lapw1) Weather Station

2:36 - Fri 26th May 2017 All times are PDT. -7 hours from GMT.

  • Wind
    1mph, 2mph gusts
  • Sea Temp 49°f
  • Air Temp 46°f
  • Sea Pressure 1013.7mb
  • 9442396 - La Push, Wa
  • 9442396 - La Push, Wa

More Historic Weather Station data

Upgrade to MSW Pro to gain access to the past 30 days of data for over 8000 Wavebouys and Weather Stations around the globe.

Join Pro

Comparision Forecast

View Surf forecast
   
ven. 05/26 2:36 1 2 mph 1013.7mb 49f 46f
2:30 1 2 mph 1013.7mb 49f 46f
2:24 1 2 mph 1013.6mb 49f 46f
2:18  -  2 mph 1013.6mb 49f 46f
2:12  -  0 mph 1013.5mb 49f 46f
2:06  -  1 mph 1013.5mb 49f 46f
2:00 1 3 mph 1013.5mb 49f 47f
1:36 6 7 mph 1013.4mb 49f 47f
1:30 3 5 mph 1013.3mb 49f 46f
1:24 1 2 mph 1013.2mb 49f 46f
1:18 2 3 mph 1013.2mb 49f 46f
1:12 3 3 mph 1013.2mb 49f 47f
1:06 2 3 mph 1013.1mb 49f 47f
1:00 2 2 mph 1013.1mb 49f 47f
12:36 3 5 mph 1013.2mb 49f 47f
12:30 2 5 mph 1013.1mb 49f 47f
12:24 3 5 mph 1013.1mb 49f 47f
12:18 2 3 mph 1013.1mb 49f 47f
12:12 2 2 mph 1013.1mb 49f 49f
12:06 1 2 mph 1013.1mb 49f 49f
12:00 2 2 mph 1013.1mb 49f 49f
jeu. 05/25 11:36  -  1 mph 1013mb 49f 49f
11:30 1 2 mph 1013mb 49f 49f
11:24  -  1 mph 1013mb 49f 49f
11:18 1 2 mph 1013mb 49f 50f
11:12  -  1 mph 1013mb 49f 50f
11:06  -  2 mph 1013mb 49f 50f
11:00 1 1 mph 1012.9mb 49f 50f
10:36  -  1 mph 1012.9mb 49f 50f
10:30 1 2 mph 1012.8mb 49f 50f
10:24 1 3 mph 1012.8mb 49f 50f
10:18  -  1 mph 1012.8mb 49f 50f
10:12  -  1 mph 1012.7mb 49f 50f
10:06  -  1 mph 1012.7mb 49f 51f
10:00 1 2 mph 1012.6mb 49f 51f
9:36 6 7 mph 1012.5mb 49f 52f
9:30 5 9 mph 1012.5mb 49f 52f
9:24 6 7 mph 1012.4mb 49f 52f
9:18 5 6 mph 1012.3mb 49f 52f
9:12 6 8 mph 1012.2mb 49f 52f
9:06 7 8 mph 1012.2mb 49f 52f
9:00 6 7 mph 1012.1mb 49f 52f
8:36 8 9 mph 1012mb 49f 53f
8:30 7 9 mph 1011.9mb 50f 53f
8:24 8 10 mph 1011.9mb 50f 53f
8:18 8 10 mph 1011.9mb 51f 53f
8:12 10 14 mph 1011.9mb 51f 53f
8:06 11 15 mph 1011.9mb 52f 52f
8:00 14 16 mph 1011.9mb 53f 52f
7:36 15 17 mph - 53f 52f
7:30 14 17 mph - 53f 52f
7:24 11 16 mph - 53f 52f
7:18 13 16 mph - 53f 52f
7:12 13 15 mph - 53f 52f
7:06 11 15 mph - 53f 52f
7:00 11 14 mph - 53f 52f
6:36 13 15 mph 1012mb 53f 52f
6:30 13 15 mph 1012mb 53f 52f
6:24 11 15 mph 1012mb 53f 52f
6:18 11 14 mph 1012.1mb 53f 52f
6:12 10 14 mph 1012.1mb 53f 52f
6:06 13 14 mph 1012.2mb 53f 52f
6:00 13 15 mph 1012.1mb 53f 52f
5:36 10 11 mph 1012.2mb 52f 52f
5:30 9 10 mph 1012.3mb 52f 52f
5:24 8 9 mph 1012.3mb 52f 52f
5:18 8 10 mph 1012.4mb 52f 52f
5:12 8 9 mph 1012.4mb 51f 52f
5:06 8 9 mph 1012.5mb 51f 52f
5:00 8 9 mph 1012.5mb 51f 52f
4:36 8 9 mph 1012.6mb 49f 52f
4:30 8 9 mph 1012.6mb 49f 52f
4:24 7 9 mph 1012.7mb 48f 52f
4:18 8 9 mph 1012.7mb 48f 52f
4:12 7 9 mph 1012.6mb 47f 52f
4:06 7 9 mph 1012.7mb 47f 52f
4:00 7 9 mph 1012.7mb 47f 52f
3:36 7 9 mph 1012.9mb 47f 52f
3:30 6 8 mph 1012.9mb 47f 52f
3:24 7 8 mph 1012.9mb 47f 52f
3:18 7 8 mph 1013mb 47f 52f
3:12 6 8 mph 1013.1mb 47f 52f
3:06 6 8 mph 1013.1mb 47f 52f
3:00 7 8 mph 1013.1mb 47f 52f
2:36 6 7 mph 1013.3mb 47f 52f
2:30 5 7 mph 1013.3mb 47f 52f
2:24 5 6 mph 1013.3mb 47f 52f
2:18 5 6 mph 1013.3mb 47f 52f
2:12 5 7 mph 1013.3mb 47f 51f
2:06 6 8 mph 1013.3mb 47f 51f
2:00 6 8 mph 1013.3mb 47f 52f
1:36 6 7 mph 1013.2mb 47f 51f
1:30 6 7 mph 1013.2mb 47f 51f
1:24 6 7 mph 1013.3mb 47f 51f
1:18 6 8 mph 1013.2mb 47f 51f
1:12 6 8 mph 1013.2mb 47f 52f
1:06 6 7 mph 1013.2mb 47f 51f
1:00 6 7 mph 1013.3mb 47f 51f
12:36 5 6 mph 1013.3mb 47f 51f
12:30 6 7 mph 1013.4mb 47f 51f
12:24 6 7 mph 1013.3mb 47f 52f
12:18 6 7 mph 1013.4mb 47f 52f
12:12 7 8 mph 1013.4mb 47f 52f
12:06 6 8 mph 1013.3mb 47f 52f
12:00 5 8 mph 1013.4mb 47f 52f
11:36 7 8 mph 1013.3mb 47f 52f
11:30 7 9 mph 1013.4mb 47f 52f
11:24 6 8 mph 1013.4mb 47f 52f
11:18 6 8 mph 1013.4mb 47f 52f
11:12 7 8 mph 1013.4mb 47f 52f
11:06 6 9 mph 1013.4mb 47f 51f
11:00 7 9 mph 1013.4mb 47f 51f
10:36 8 9 mph 1013.3mb 48f 51f
10:30 6 9 mph 1013.3mb 48f 51f
10:24 7 9 mph 1013.3mb 49f 51f
10:18 6 9 mph 1013.3mb 49f 51f
10:12 6 9 mph 1013.3mb 49f 51f
10:06 6 7 mph 1013.3mb 50f 51f
10:00 5 8 mph 1013.4mb 50f 51f
9:36 6 8 mph 1013.4mb 50f 49f
9:30 6 8 mph 1013.4mb 50f 50f
9:24 5 6 mph 1013.4mb 50f 50f
9:18 5 8 mph 1013.4mb 50f 49f
9:12 5 7 mph 1013.4mb 50f 49f
9:06 5 7 mph 1013.4mb 50f 49f
9:00 1 3 mph 1013.4mb 50f 49f
8:36 3 6 mph 1013.3mb 51f 47f
8:30 5 6 mph 1013.3mb 51f 47f
8:24 5 6 mph 1013.3mb 51f 47f
8:18 5 6 mph 1013.3mb 51f 47f
8:12 3 6 mph 1013.3mb 51f 46f
8:06 3 6 mph 1013.3mb 51f 46f
8:00 5 6 mph 1013.3mb 51f 45f
7:36 6 8 mph 1013.2mb 51f 44f
7:30 6 8 mph 1013.2mb 51f 44f
7:24 6 8 mph 1013.2mb 51f 44f
7:18 6 9 mph 1013.2mb 52f 43f
7:12 7 9 mph 1013.1mb 52f 43f
7:06 7 9 mph 1013.1mb 52f 43f
7:00 7 8 mph 1013mb 52f 43f
6:36 7 8 mph 1013mb 53f 42f
6:30 7 9 mph 1013.1mb 53f 42f
6:24 7 8 mph 1013.1mb 53f 42f
6:18 7 9 mph 1013.1mb 53f 42f
6:12 6 8 mph 1013.1mb 53f 42f
6:06 7 8 mph 1013.1mb 53f 42f
6:00 7 8 mph 1013.1mb 53f 42f
5:36 7 9 mph 1013.2mb 53f 42f
5:30 7 8 mph 1013.2mb 53f 42f
5:24 7 9 mph 1013.2mb 53f 42f
5:18 7 9 mph 1013.2mb 53f 42f
5:12 7 9 mph 1013.2mb 53f 42f
5:06 7 8 mph 1013.3mb 53f 42f
5:00 6 9 mph 1013.3mb 53f 42f
4:36 6 8 mph 1013.4mb 53f 42f
4:30 6 8 mph 1013.4mb 53f 42f
4:24 7 8 mph 1013.5mb 53f 43f
4:18 7 8 mph 1013.4mb 53f 43f
4:12 7 9 mph 1013.4mb 53f 43f
4:06 7 9 mph 1013.4mb 53f 43f
4:00 7 8 mph 1013.4mb 53f 43f
3:54 8 9 mph 1013.4mb 53f 43f
3:48 7 9 mph 1013.4mb 52f 43f
3:36 7 8 mph 1013.4mb 52f 44f
3:30 7 9 mph 1013.5mb 52f 44f
3:24 7 8 mph 1013.4mb 51f 44f
3:18 6 8 mph 1013.5mb 51f 44f
3:12 7 8 mph 1013.5mb 50f 44f
3:06 7 8 mph 1013.6mb 50f 44f
3:00 7 8 mph 1013.6mb 49f 44f
2:54 6 8 mph 1013.6mb 49f 44f
2:48 7 8 mph 1013.7mb 49f 44f
2:36 6 8 mph 1013.7mb 49f 44f
2:30 6 8 mph 1013.8mb 49f 44f
2:24 7 8 mph 1013.8mb 49f 44f
2:18 7 7 mph 1013.8mb 49f 44f
2:12 7 8 mph 1013.8mb 49f 44f
2:06 6 7 mph 1013.8mb 49f 44f
2:00 6 8 mph 1013.8mb 49f 45f
1:54 6 7 mph 1013.9mb 49f 45f
1:48 5 6 mph 1013.9mb 49f 45f
1:36 6 7 mph 1014mb 49f 45f
1:30 5 6 mph 1014mb 49f 45f
1:24 2 6 mph 1014mb 49f 45f
1:18 3 6 mph 1014mb 49f 45f
1:12 3 7 mph 1014mb 49f 45f
1:06 6 7 mph 1014.1mb 49f 45f
1:00 5 6 mph 1014.1mb 49f 45f
12:54 3 5 mph 1014.2mb 49f 46f
12:48 3 5 mph 1014.3mb 49f 46f
12:36 3 6 mph 1014.3mb 49f 46f
12:30 3 6 mph 1014.4mb 49f 46f
12:24 5 6 mph 1014.3mb 49f 46f
12:18 5 6 mph 1014.4mb 49f 46f
12:12 3 3 mph 1014.4mb 49f 46f
12:06 1 2 mph 1014.4mb 49f 46f
12:00  -  1 mph 1014.4mb 49f 46f
mer. 05/24 11:54  -  1 mph 1014.4mb 49f 46f
11:48 1 1 mph 1014.4mb 49f 46f
11:36 1 2 mph 1014.4mb 49f 46f
11:30 2 2 mph 1014.4mb 49f 47f
11:24 1 2 mph 1014.5mb 49f 47f
11:18  -  1 mph 1014.6mb 49f 47f
11:12 1 2 mph 1014.6mb 49f 47f
11:06 1 2 mph 1014.6mb 49f 47f
11:00  -  1 mph 1014.6mb 49f 47f
10:54 1 1 mph 1014.5mb 49f 47f
10:48  -  2 mph 1014.6mb 49f 47f
10:36 2 2 mph 1014.6mb 49f 48f
10:30 1 2 mph 1014.6mb 49f 49f
10:24 2 2 mph 1014.6mb 49f 48f
10:18 2 3 mph 1014.6mb 49f 48f
10:12  -  2 mph 1014.6mb 49f 49f
10:06 1 2 mph 1014.5mb 49f 49f
10:00 1 2 mph 1014.6mb 49f 49f
9:54  -  1 mph 1014.6mb 49f 49f
9:48  -  2 mph 1014.5mb 49f 50f
9:36 2 3 mph 1014.4mb 49f 50f
9:30 2 3 mph 1014.3mb 49f 51f
9:24 2 3 mph 1014.3mb 49f 51f
9:18 3 3 mph 1014.4mb 49f 51f
9:12 3 5 mph 1014.4mb 49f 51f
9:06 5 6 mph 1014.3mb 49f 51f
9:00 5 6 mph 1014.4mb 49f 51f
8:54 5 7 mph 1014.4mb 49f 51f
8:48 6 7 mph 1014.4mb 49f 51f
8:36 6 8 mph 1014.5mb 49f 51f
8:30 7 8 mph 1014.6mb 50f 51f
8:24 7 8 mph 1014.6mb 50f 51f
8:18 6 7 mph 1014.6mb 50f 51f
8:12 7 8 mph 1014.6mb 51f 51f
8:06 6 7 mph 1014.7mb 51f 52f
8:00 6 6 mph 1014.7mb 52f 52f
7:54 5 6 mph 1014.8mb 53f 52f
7:36 6 7 mph 1014.9mb 55f 52f
7:30 6 7 mph 1014.9mb 55f 52f
7:24 6 7 mph 1014.9mb 55f 52f
7:18 6 7 mph 1014.9mb 55f 52f
7:12 6 7 mph 1014.9mb 55f 52f
7:06 6 8 mph 1015mb 55f 52f
7:00 6 8 mph 1015mb 55f 52f
6:54 7 9 mph 1015.1mb 55f 52f
6:48 8 10 mph 1015mb 55f 52f
6:36 7 10 mph 1015mb 55f 51f
6:30 7 9 mph 1015.2mb 55f 52f
6:24 6 9 mph 1015.1mb 55f 52f
6:18 7 9 mph 1015.1mb 54f 52f
6:12 8 9 mph 1015.2mb 54f 52f
6:06 7 9 mph 1015.2mb 54f 52f
6:00 6 7 mph 1015.3mb 53f 52f
5:54 6 7 mph 1015.4mb 53f 52f
5:48 6 7 mph 1015.4mb 53f 52f
5:36 5 6 mph 1015.5mb 53f 52f
5:30 5 6 mph 1015.6mb 53f 52f
5:24 3 5 mph 1015.7mb 53f 52f
5:18 5 7 mph 1015.7mb 53f 52f
5:12 7 7 mph 1015.6mb 53f 52f
5:06 5 7 mph 1015.7mb 53f 52f
5:00 6 8 mph 1015.7mb 53f 52f
4:54 7 8 mph 1015.7mb 53f 52f
4:48 6 9 mph 1015.8mb 53f 52f
4:36 8 10 mph 1015.9mb 53f 52f
4:30 9 10 mph 1016mb 52f 52f
4:24 9 11 mph 1016mb 52f 52f
4:18 8 10 mph 1016mb 52f 52f
4:12 8 10 mph 1015.9mb 52f 52f
4:06 7 9 mph 1015.9mb 52f 52f
4:00 6 8 mph 1016.1mb 52f 52f
3:54 6 7 mph 1016.2mb 52f 52f
3:48 6 7 mph 1016.3mb 52f 52f
3:36 5 7 mph 1016.4mb 51f 52f
3:30 5 5 mph 1016.5mb 51f 52f
3:24 3 5 mph 1016.6mb 51f 52f
3:18 3 6 mph 1016.6mb 50f 52f
3:12 3 5 mph 1016.6mb 50f 52f
3:06 3 5 mph 1016.7mb 50f 52f
3:00 3 6 mph 1016.7mb 50f 52f
2:54 3 5 mph 1016.7mb 50f 52f
2:48 5 6 mph 1016.7mb 49f 51f
2:36 3 5 mph 1016.8mb 49f 51f
2:30 3 5 mph 1016.8mb 49f 52f
2:24 2 5 mph 1016.9mb 49f 51f
2:18 5 6 mph 1016.8mb 49f 51f
2:12 3 6 mph 1016.8mb 49f 51f
2:06 3 6 mph 1016.9mb 49f 51f
2:00 3 5 mph 1016.9mb 49f 51f
1:54 3 6 mph 1016.9mb 49f 51f
1:48 5 6 mph 1016.9mb 49f 51f
1:36 5 7 mph 1017.1mb 49f 51f
1:30 6 7 mph 1017.3mb 49f 51f
1:24 6 8 mph 1017.3mb 49f 51f
1:18 7 9 mph 1017.3mb 49f 51f
1:12 8 10 mph 1017.4mb 49f 51f
1:06 9 10 mph 1017.5mb 49f 51f
1:00 9 11 mph 1017.6mb 49f 51f
12:54 9 11 mph 1017.7mb 49f 51f
12:48 9 11 mph 1017.7mb 49f 51f
12:36 8 10 mph 1017.7mb 49f 51f
12:30 6 8 mph 1017.7mb 49f 51f
12:24 7 8 mph 1017.7mb 49f 51f
12:18 6 8 mph 1017.7mb 49f 51f
12:12 6 8 mph 1017.7mb 49f 51f
12:06 7 9 mph 1017.8mb 49f 51f
12:00 9 10 mph 1017.8mb 49f 51f
11:54 8 10 mph 1017.9mb 49f 51f
11:48 6 9 mph 1017.9mb 49f 51f
11:36 8 10 mph 1018.1mb 49f 51f
11:30 8 11 mph 1018.1mb 49f 51f
11:24 8 11 mph 1018.2mb 49f 51f
11:18 9 11 mph 1018.2mb 49f 51f
11:12 7 8 mph 1018.2mb 49f 51f
11:06 8 11 mph 1018.3mb 49f 51f
11:00 9 13 mph 1018.4mb 49f 51f
10:54 9 10 mph 1018.5mb 49f 51f
10:48 8 10 mph 1018.5mb 49f 51f
10:36 9 10 mph 1018.6mb 49f 51f
10:30 9 14 mph 1018.7mb 49f 51f
10:24 11 14 mph 1018.8mb 49f 51f
10:18 10 13 mph 1018.8mb 49f 51f
10:12 10 14 mph 1018.9mb 49f 51f
10:06 11 14 mph 1018.9mb 49f 51f
10:00 9 13 mph 1019mb 49f 51f
9:54 10 14 mph 1019mb 50f 51f
9:48 10 14 mph 1019mb 50f 51f
9:36 11 14 mph 1018.9mb 51f 51f
9:30 10 14 mph 1018.9mb 51f 51f
9:24 8 10 mph 1018.9mb 52f 51f
9:18 8 13 mph 1018.8mb 53f 51f
9:12 10 13 mph 1018.8mb 53f 51f
9:06 10 13 mph 1018.9mb 53f 51f
9:00 10 13 mph 1018.9mb 53f 51f
8:54 9 11 mph 1018.9mb 53f 51f
8:48 9 13 mph 1019mb 53f 51f
8:36 10 14 mph 1019mb 53f 51f
8:30 10 11 mph 1019mb 53f 51f
8:24 9 14 mph 1018.9mb 53f 51f
8:18 9 14 mph 1018.8mb 54f 51f
8:12 13 16 mph 1018.8mb 54f 51f
8:06 14 17 mph 1018.8mb 54f 51f
8:00 15 20 mph 1019mb 54f 51f
7:54 11 20 mph 1019mb 54f 51f
7:48 9 13 mph 1019mb 54f 51f
7:36 10 15 mph 1019mb 54f 51f
7:30 13 21 mph 1019mb 54f 51f
7:24 11 17 mph 1019.1mb 54f 51f
7:18 11 15 mph 1019mb 54f 51f
7:12 13 15 mph 1019mb 54f 51f
7:06 13 17 mph 1019mb 54f 51f
7:00 14 18 mph 1019mb 54f 51f
6:54 15 17 mph 1019.1mb 54f 51f
6:48 13 16 mph 1019mb 54f 51f
6:36 14 16 mph 1019.1mb 54f 51f
6:30 11 14 mph 1019mb 54f 51f
6:24 10 13 mph 1018.9mb 54f 51f
6:18 10 14 mph 1018.9mb 55f 51f
6:12 10 14 mph 1019mb 55f 51f
6:06 10 15 mph 1019mb 55f 51f
6:00 13 16 mph 1019mb 55f 51f
5:54 13 16 mph 1019mb 55f 50f
5:48 11 14 mph 1019.1mb 55f 50f
5:36 9 11 mph 1019.1mb 55f 50f
5:30 9 13 mph 1019.1mb 55f 51f
5:24 11 14 mph 1019.2mb 55f 51f
5:18 13 15 mph 1019.2mb 55f 51f
5:12 13 16 mph 1019.3mb 55f 51f
5:06 14 22 mph 1019.3mb 55f 51f
5:00 16 20 mph 1019.4mb 55f 50f
4:54 10 13 mph 1019.3mb 55f 51f
4:48 11 16 mph 1019.4mb 55f 51f
4:36 13 20 mph 1019.5mb 55f 51f
4:30 16 18 mph 1019.6mb 55f 50f
4:24 15 20 mph 1019.5mb 55f 50f
4:18 11 17 mph 1019.6mb 55f 51f
4:12 14 18 mph 1019.6mb 55f 51f
4:06 11 16 mph 1019.6mb 55f 51f
4:00 11 17 mph 1019.6mb 55f 50f
3:54 14 15 mph 1019.7mb 55f 50f
3:48 11 16 mph 1019.8mb 55f 50f
3:36 15 21 mph 1019.9mb 55f 50f
3:30 18 22 mph 1020mb 55f 50f
3:24 14 17 mph 1019.8mb 55f 50f
3:18 13 14 mph 1019.8mb 55f 50f
3:12 13 16 mph 1019.9mb 55f 50f
3:06 13 16 mph 1020.1mb 55f 50f
3:00 14 18 mph 1020.2mb 55f 50f
2:54 13 16 mph 1020.3mb 55f 50f
2:48 11 17 mph 1020.3mb 54f 50f
2:36 14 20 mph 1020.3mb 54f 50f
2:30 17 22 mph 1020.4mb 53f 50f
2:24 14 22 mph 1020.4mb 53f 50f
2:18 15 17 mph 1020.4mb 53f 50f
2:12 13 17 mph 1020.4mb 52f 50f
2:06 14 16 mph 1020.4mb 51f 50f
2:00 14 22 mph 1020.4mb 51f 50f
1:54 17 21 mph 1020.5mb 51f 50f
1:48 16 20 mph 1020.5mb 50f 50f
1:36 17 23 mph 1020.5mb 50f 51f
1:30 16 21 mph 1020.6mb 50f 51f
1:24 17 22 mph 1020.6mb 50f 51f
1:18 16 21 mph 1020.5mb 50f 50f
1:12 15 18 mph 1020.5mb 49f 50f
1:06 16 20 mph 1020.7mb 49f 51f
1:00 17 21 mph 1020.8mb 49f 51f
12:54 16 21 mph 1020.7mb 49f 51f
12:48 16 22 mph 1020.7mb 49f 51f
12:36 16 24 mph 1020.9mb 49f 51f
12:30 20 26 mph 1020.9mb 49f 51f
12:24 20 25 mph 1020.9mb 49f 51f
12:18 21 24 mph 1020.9mb 49f 51f
12:12 20 23 mph 1020.9mb 49f 51f
12:06 22 24 mph 1020.9mb 49f 51f
12:00 20 24 mph 1020.9mb 49f 51f
mar. 05/23 11:54 20 26 mph 1020.9mb 49f 51f
11:48 22 30 mph 1021mb 49f 51f
11:36 20 24 mph 1021.1mb 49f 51f
11:30 21 25 mph 1021.4mb 49f 51f
11:24 18 24 mph 1021.4mb 49f 51f
11:18 20 22 mph 1021.5mb 49f 51f
11:12 20 23 mph 1021.4mb 49f 51f
11:06 20 24 mph 1021.4mb 49f 51f
11:00 16 23 mph 1021.3mb 49f 51f
10:54 16 22 mph 1021.3mb 49f 51f
10:48 16 23 mph 1021.4mb 49f 51f
10:36 20 24 mph 1021.3mb 49f 51f
10:30 16 22 mph 1021.2mb 49f 51f
10:24 16 25 mph 1021.2mb 49f 51f
10:18 18 24 mph 1021.3mb 49f 51f
10:12 16 22 mph 1021.1mb 49f 51f
10:06 16 24 mph 1021mb 49f 51f
10:00 17 25 mph 1021mb 49f 51f
9:54 21 28 mph 1020.9mb 49f 51f
9:36 23 28 mph 1020.9mb 49f 51f
9:30 21 26 mph 1020.9mb 49f 51f
9:24 21 23 mph 1020.7mb 49f 51f
9:18 18 24 mph 1020.9mb 49f 51f
9:12 16 20 mph 1020.9mb 49f 51f
9:06 15 21 mph 1020.8mb 49f 51f
9:00 16 20 mph 1020.9mb 49f 51f
8:54 14 21 mph 1020.8mb 49f 51f
8:48 20 24 mph 1020.8mb 49f 51f
8:36 17 21 mph 1020.8mb 49f 51f
8:30 17 24 mph 1020.9mb 50f 51f
8:24 16 22 mph 1020.7mb 49f 51f
8:18 15 21 mph 1020.7mb 50f 51f
8:12 16 21 mph 1020.9mb 50f 51f
8:06 18 23 mph 1020.9mb 49f 51f
8:00 20 25 mph 1020.9mb 50f 51f
7:54 21 24 mph 1021.1mb 50f 51f
7:48 21 24 mph 1020.9mb 50f 51f
7:36 16 24 mph 1020.8mb 52f 51f
7:30 18 22 mph 1020.9mb 53f 52f
7:24 17 22 mph 1020.8mb 54f 52f
7:18 18 23 mph 1020.8mb 55f 52f
7:12 18 24 mph 1020.9mb 56f 52f
7:06 21 24 mph 1021mb 56f 52f
7:00 20 24 mph 1020.9mb 56f 52f
6:54 18 24 mph 1021mb 56f 52f
6:48 17 22 mph 1021mb 56f 52f
6:36 22 26 mph 1021.2mb 56f 52f
6:30 22 25 mph 1021.2mb 56f 52f
6:24 20 26 mph 1021.1mb 56f 52f
6:18 17 22 mph 1021mb 56f 52f
6:12 18 23 mph 1021mb 56f 52f
6:06 17 23 mph 1021.1mb 56f 52f
6:00 16 22 mph 1021.1mb 56f 52f
5:54 17 23 mph 1020.9mb 56f 52f
5:48 18 24 mph 1020.9mb 56f 52f
5:36 16 21 mph 1020.9mb 56f 52f
5:30 15 20 mph 1020.9mb 56f 52f
5:24 14 18 mph 1020.9mb 56f 52f
5:18 15 24 mph 1020.9mb 56f 52f
5:12 18 22 mph 1021mb 56f 52f
5:06 15 20 mph 1021mb 56f 52f
5:00 16 20 mph 1020.9mb 56f 52f
4:54 14 17 mph 1020.9mb 56f 52f
4:36 18 23 mph 1021mb 56f 52f
4:30 20 22 mph 1021mb 56f 53f
4:24 14 18 mph 1020.7mb 56f 52f
4:18 14 17 mph 1020.7mb 56f 52f
4:12 15 17 mph 1020.9mb 56f 53f
4:06 15 21 mph 1021mb 56f 53f
4:00 16 21 mph 1021mb 56f 53f
3:54 16 21 mph 1021mb 56f 53f
3:48 14 17 mph 1021mb 56f 53f
3:36 14 17 mph 1020.9mb 56f 53f
3:30 14 20 mph 1020.9mb 56f 52f
3:24 15 18 mph 1020.9mb 56f 52f
3:18 15 25 mph 1021mb 56f 52f
3:12 24 29 mph 1021.3mb 56f 53f
3:06 17 29 mph 1021mb 56f 53f
3:00 16 20 mph 1021.1mb 56f 53f
2:54 15 18 mph 1020.9mb 56f 53f
2:48 15 18 mph 1020.9mb 56f 53f
2:36 13 15 mph 1020.8mb 55f 52f
2:30 11 13 mph 1020.8mb 55f 52f
2:24 9 13 mph 1020.7mb 55f 52f
2:18 9 14 mph 1020.7mb 54f 52f
2:12 8 11 mph 1020.7mb 54f 52f
2:06 10 13 mph 1020.6mb 54f 52f
2:00 8 10 mph 1020.5mb 53f 52f
1:54 9 11 mph 1020.5mb 53f 52f
1:48 10 14 mph 1020.5mb 52f 52f
1:36 11 14 mph 1020.5mb 51f 52f
1:30 11 14 mph 1020.5mb 51f 52f
1:24 10 16 mph 1020.5mb 50f 52f
1:18 11 16 mph 1020.4mb 50f 52f
1:12 14 15 mph 1020.4mb 50f 52f
1:06 8 11 mph 1020.3mb 50f 52f
1:00 9 13 mph 1020.2mb 50f 52f
12:54 11 13 mph 1020.2mb 50f 52f
12:48 10 13 mph 1020.2mb 50f 52f
12:36 10 13 mph 1020.2mb 50f 52f
12:30 10 11 mph 1020.1mb 50f 52f
12:24 9 10 mph 1020.1mb 50f 52f
12:18 9 11 mph 1020.1mb 50f 52f
12:12 7 9 mph 1020.1mb 50f 53f
12:06 8 10 mph 1020mb 50f 53f
12:00 9 11 mph 1020.1mb 50f 52f
11:54 8 9 mph 1020mb 50f 53f
11:48 7 8 mph 1019.9mb 50f 52f
11:36 3 6 mph 1019.8mb 49f 52f
11:30 5 6 mph 1019.8mb 49f 52f
11:24 3 6 mph 1019.7mb 49f 52f
11:18 6 7 mph 1019.8mb 50f 52f
11:12 6 8 mph 1019.8mb 50f 52f
11:06 7 8 mph 1019.9mb 50f 52f
11:00 7 9 mph 1020mb 50f 52f
10:54 7 9 mph 1020mb 50f 52f
10:48 8 10 mph 1020.1mb 50f 52f
10:36 8 11 mph 1020mb 50f 52f
10:30 10 13 mph 1020mb 50f 52f
10:24 10 13 mph 1020mb 50f 52f
10:18 10 13 mph 1020mb 50f 52f
10:12 11 15 mph 1019.9mb 50f 52f
10:06 13 15 mph 1020mb 50f 52f
10:00 10 14 mph 1019.9mb 50f 52f
9:54 11 14 mph 1019.9mb 50f 52f
9:48 11 15 mph 1019.8mb 51f 53f
9:36 10 13 mph 1019.7mb 51f 53f
9:30 10 13 mph 1019.7mb 51f 53f
9:24 10 13 mph 1019.6mb 51f 53f
9:18 13 15 mph 1019.6mb 51f 53f
9:12 11 15 mph 1019.6mb 51f 53f
9:06 10 13 mph 1019.4mb 51f 53f
9:00 8 10 mph 1019.3mb 51f 53f
8:54 8 10 mph 1019.2mb 51f 53f
8:48 7 10 mph 1019.2mb 52f 53f
8:36 7 10 mph 1019.3mb 53f 53f
8:30 8 10 mph 1019.2mb 53f 53f
8:24 9 13 mph 1019.3mb 54f 53f
8:18 10 14 mph 1019.5mb 55f 53f
8:12 10 13 mph 1019.4mb 56f 53f
8:06 10 14 mph 1019.4mb 56f 53f
8:00 11 16 mph 1019.5mb 57f 52f
7:54 10 14 mph 1019.4mb 57f 52f
7:48 10 14 mph 1019.4mb 57f 52f
7:36 10 14 mph 1019.4mb 57f 53f
7:30 10 14 mph 1019.4mb 57f 53f
7:24 11 13 mph 1019.4mb 57f 53f
7:18 9 14 mph 1019.4mb 57f 53f
7:12 11 13 mph 1019.5mb 57f 53f
7:06 9 11 mph 1019.5mb 57f 54f
7:00 10 14 mph 1019.6mb 57f 54f
6:54 11 15 mph 1019.6mb 57f 54f
6:48 10 16 mph 1019.5mb 57f 54f
6:36 11 15 mph 1019.5mb 57f 54f
6:30 7 10 mph 1019.4mb 57f 54f
6:24 6 10 mph 1019.3mb 57f 54f
6:18 5 9 mph 1019.3mb 57f 54f
6:12 7 11 mph 1019.2mb 58f 54f
6:06 6 9 mph 1019.2mb 58f 54f
6:00 5 10 mph 1019.3mb 58f 54f
5:54 6 10 mph 1019.4mb 58f 54f
5:48 6 9 mph 1019.4mb 58f 54f
5:36 8 15 mph 1019.4mb 58f 54f
5:30 10 13 mph 1019.3mb 58f 54f
5:24 8 11 mph 1019.3mb 58f 54f
5:18 9 13 mph 1019.3mb 58f 54f
5:12 7 15 mph 1019.3mb 58f 54f
5:06 10 18 mph 1019.3mb 58f 54f
5:00 14 15 mph 1019.4mb 58f 54f
4:54 13 15 mph 1019.4mb 58f 54f
4:48 10 17 mph 1019.3mb 58f 54f
4:36 11 14 mph 1019.4mb 58f 54f
4:30 11 14 mph 1019.5mb 58f 54f
4:24 11 15 mph 1019.4mb 58f 54f
4:18 11 15 mph 1019.4mb 58f 54f
4:12 9 14 mph 1019.4mb 58f 54f
4:06 11 16 mph 1019.4mb 58f 54f
4:00 10 14 mph 1019.4mb 58f 54f
3:54 14 15 mph 1019.4mb 58f 54f
3:48 14 16 mph 1019.4mb 58f 54f
3:36 9 15 mph 1019.3mb 58f 53f
3:30 9 11 mph 1019.3mb 58f 53f
3:24 10 13 mph 1019.3mb 58f 53f
3:18 10 14 mph 1019.2mb 58f 53f
3:12 11 15 mph 1019.2mb 58f 54f
3:06 9 11 mph 1019.2mb 58f 54f
3:00 9 14 mph 1019mb 57f 54f
2:54 10 13 mph 1019.1mb 57f 54f
2:48 7 9 mph 1019.2mb 57f 54f
2:36 3 6 mph 1019.1mb 57f 53f
2:30  -  3 mph 1019mb 57f 53f
2:24 1 2 mph 1019mb 57f 53f
2:18 1 2 mph 1019mb 56f 53f
2:12 1 3 mph 1019mb 56f 53f
2:06 1 2 mph 1019mb 55f 53f
2:00 2 5 mph 1019mb 55f 53f
1:54 1 3 mph 1019mb 55f 54f
1:48 1 3 mph 1019mb 54f 54f
1:36 2 5 mph 1019.1mb 54f 54f
1:30 2 3 mph 1019mb 53f 54f
1:24 3 6 mph 1019mb 53f 54f
1:18 5 6 mph 1019.1mb 53f 54f
1:12 3 5 mph 1019.1mb 53f 54f
1:06 2 3 mph 1019.1mb 53f 54f
1:00 2 3 mph 1019.1mb 53f 54f
12:54 1 3 mph 1019.2mb 53f 54f
12:48 2 3 mph 1019.2mb 53f 55f
12:36 3 6 mph 1019.1mb 53f 55f
12:30 5 7 mph 1019mb 53f 55f
12:24 3 6 mph 1019mb 53f 55f
12:18 2 5 mph 1019.1mb 53f 55f
12:12 3 8 mph 1019.1mb 53f 55f
12:06 3 6 mph 1019.1mb 53f 56f
12:00 5 8 mph 1019.2mb 53f 56f
lun. 05/22 11:54 5 9 mph 1019.2mb 53f 56f
11:48 5 7 mph 1019.2mb 53f 56f
11:36 5 9 mph 1019.3mb 53f 56f
11:30 3 7 mph 1019.2mb 53f 56f
11:24 5 8 mph 1019.1mb 53f 56f
11:18 3 11 mph 1019.1mb 53f 56f
11:12 10 15 mph 1019.1mb 53f 56f
11:06 8 13 mph 1019.2mb 53f 56f
11:00 10 14 mph 1019.2mb 53f 56f
10:54 10 14 mph 1019.3mb 53f 57f
10:48 10 11 mph 1019.2mb 53f 57f
10:36 10 14 mph 1019.1mb 53f 57f
10:30 9 14 mph 1019.1mb 53f 56f
10:24 9 11 mph 1019mb 53f 56f
10:18 9 13 mph 1019mb 53f 56f
10:12 10 13 mph 1019.1mb 53f 57f
10:06 10 11 mph 1019mb 53f 57f
10:00 6 8 mph 1018.9mb 53f 57f
9:54  -  2 mph 1018.7mb 53f 57f
9:48  -  5 mph 1018.6mb 53f 58f
9:36 5 9 mph 1018.5mb 53f 58f
9:30 9 11 mph 1018.6mb 53f 58f
9:24 9 11 mph 1018.6mb 53f 59f
9:18 7 9 mph 1018.6mb 52f 60f
9:12 5 11 mph 1018.5mb 52f 59f
9:06 9 14 mph 1018.6mb 52f 58f
9:00 13 15 mph 1018.7mb 52f 59f
8:54 11 13 mph 1018.8mb 52f 61f
8:48 7 11 mph 1018.7mb 52f 64f
8:36 6 8 mph 1018.6mb 52f 64f
8:30 6 11 mph 1018.6mb 52f 64f
8:24 8 13 mph 1018.7mb 52f 62f
8:18 7 9 mph 1018.8mb 52f 62f
8:12 8 9 mph 1018.8mb 52f 62f
8:06 8 13 mph 1018.8mb 52f 61f
8:00 10 13 mph 1018.8mb 52f 64f
7:54 5 7 mph 1018.7mb 52f 62f
7:36 14 17 mph 1019mb 53f 59f
7:30 15 17 mph 1019.1mb 53f 59f
7:24 16 23 mph 1019.2mb 53f 59f
7:18 20 22 mph 1019.2mb 54f 58f
7:12 20 24 mph 1019.2mb 54f 57f
7:06 22 28 mph 1019.2mb 54f 57f
7:00 22 28 mph 1019.3mb 55f 57f
6:54 25 29 mph 1019.3mb 55f 58f
6:48 24 28 mph 1019.3mb 55f 58f
6:36 24 30 mph 1019.4mb 56f 58f
6:30 26 31 mph 1019.5mb 56f 59f
6:24 23 28 mph 1019.4mb 56f 60f
6:18 23 26 mph 1019.4mb 57f 60f
6:12 24 30 mph 1019.4mb 57f 62f
6:06 22 25 mph 1019.5mb 57f 62f
6:00 22 28 mph 1019.4mb 57f 62f
5:54 23 26 mph 1019.5mb 59f 59f
5:48 23 26 mph 1019.6mb 59f 59f
5:36 25 29 mph 1019.7mb 59f 58f
5:30 22 26 mph 1019.6mb 59f 57f
5:24 21 24 mph 1019.6mb 59f 56f
5:18 21 26 mph 1019.7mb 59f 57f
5:12 21 25 mph 1019.6mb 59f 58f
5:06 21 24 mph 1019.5mb 58f 58f
5:00 18 24 mph 1019.5mb 58f 58f
4:54 20 23 mph 1019.5mb 59f 58f
4:48 20 25 mph 1019.6mb 58f 58f
4:36 22 25 mph 1019.7mb 58f 58f
4:30 21 25 mph 1019.7mb 58f 58f
4:24 21 25 mph 1019.8mb 58f 58f
4:18 22 25 mph 1019.9mb 58f 58f
4:12 23 26 mph 1020mb 58f 58f
4:06 22 26 mph 1020.1mb 58f 58f
4:00 20 25 mph 1020.2mb 58f 57f
3:54 18 22 mph 1020.2mb 57f 57f
3:48 18 22 mph 1020.2mb 57f 57f
3:36 20 23 mph 1020.2mb 57f 57f
3:30 18 22 mph 1020.2mb 57f 57f
3:24 18 23 mph 1020.3mb 57f 57f
3:18 17 20 mph 1020.3mb 56f 57f
3:12 15 18 mph 1020.3mb 56f 57f
3:06 17 21 mph 1020.4mb 56f 57f
3:00 20 22 mph 1020.4mb 56f 57f
2:54 16 20 mph 1020.3mb 56f 57f
2:48 14 20 mph 1020.1mb 56f 57f
2:36 16 21 mph 1020.3mb 56f 57f
2:30 16 20 mph 1020.5mb 56f 57f
2:24 15 18 mph 1020.4mb 56f 58f
2:18 13 15 mph 1020.3mb 56f 57f
2:12 10 13 mph 1020.2mb 55f 57f
2:06 6 11 mph 1020.3mb 55f 57f
2:00 10 11 mph 1020.3mb 55f 57f
1:54 9 14 mph 1020.4mb 55f 57f
1:48 11 14 mph 1020.6mb 55f 57f
1:36 6 10 mph 1020.7mb 55f 57f
1:30 7 8 mph 1020.8mb 55f 57f
1:24 6 7 mph 1020.7mb 54f 57f
1:18 6 8 mph 1020.7mb 54f 57f
1:12 7 9 mph 1020.7mb 54f 57f
1:06 9 14 mph 1020.8mb 54f 57f
1:00 9 11 mph 1020.8mb 54f 57f
12:54 7 10 mph 1020.9mb 53f 57f
12:48 9 11 mph 1021mb 53f 57f
12:36 7 8 mph 1021.1mb 52f 57f
12:30 8 9 mph 1021mb 52f 57f
12:24 3 3 mph 1020.7mb 52f 57f
12:18 2 6 mph 1020.7mb 52f 57f
12:12 6 8 mph 1020.9mb 52f 57f
12:06 7 8 mph 1021mb 51f 57f
12:00 5 6 mph 1020.7mb 51f 57f
11:54 2 6 mph 1020.6mb 51f 57f
11:48 6 7 mph 1020.7mb 51f 58f
11:36 3 5 mph 1020.6mb 51f 57f
11:30 2 3 mph 1020.5mb 51f 57f
11:24 1 3 mph 1020.6mb 51f 57f
11:18 3 6 mph 1020.6mb 51f 57f